Milestone, Ireland
Current Conditions -  °F | °C
As of 11:00 PM on Wednesday 22 Oct 2014 (Local Time) from EINN Reporting Station
Drizzle Drizzle  
Wind Chill: 54°   Ceiling: 1400
Heat Index: 54°   Visibility: 6mi
Dew Point: 52°   Wind: 7mph
Humidity: 94%   Direction: 190°S
Pressure: 30.06"   Gusts: NA
Location:  52.67°N, 8.08°W
Report Text: EINN 222200Z 19006KT 9000 -DZ SCT011 BKN014 12/11 Q1018 TEMPO 5000 BKN008
Loading
Personal Weather Stations






























Interactive Weather Map
Tropical Storm Tracking
New forecast layout! Learn more

10-Day Weather Forecast

Advertisements
Track Severe Weather on mobile